sensor_id;sensor_type;location;lat;lon;timestamp;pressure;altitude;pressure_sealevel;temperature;humidity
18201;BME280;9226;47.858;9.594;2023-05-25T00:02:02;95395.25;;;12.53;57.05
18201;BME280;9226;47.858;9.594;2023-05-25T00:04:32;95393.41;;;12.63;56.79
18201;BME280;9226;47.858;9.594;2023-05-25T00:07:01;95400.72;;;12.61;56.98
18201;BME280;9226;47.858;9.594;2023-05-25T00:09:27;95398.31;;;12.48;57.01
18201;BME280;9226;47.858;9.594;2023-05-25T00:11:52;95402.47;;;12.31;57.59
18201;BME280;9226;47.858;9.594;2023-05-25T00:14:18;95391.94;;;12.20;57.86
18201;BME280;9226;47.858;9.594;2023-05-25T00:16:44;95392.47;;;12.13;58.23
18201;BME280;9226;47.858;9.594;2023-05-25T00:19:13;95395.84;;;12.16;57.92
18201;BME280;9226;47.858;9.594;2023-05-25T00:21:39;95391.53;;;12.24;57.33
18201;BME280;9226;47.858;9.594;2023-05-25T00:24:06;95393.19;;;12.16;57.66
18201;BME280;9226;47.858;9.594;2023-05-25T00:26:31;95388.53;;;12.08;57.47
18201;BME280;9226;47.858;9.594;2023-05-25T00:28:57;95384.63;;;12.12;57.41
18201;BME280;9226;47.858;9.594;2023-05-25T00:31:24;95391.59;;;12.03;57.74
18201;BME280;9226;47.858;9.594;2023-05-25T00:33:50;95383.97;;;11.89;58.55
18201;BME280;9226;47.858;9.594;2023-05-25T00:36:15;95386.44;;;11.81;58.62
18201;BME280;9226;47.858;9.594;2023-05-25T00:38:41;95385.00;;;11.67;60.25
18201;BME280;9226;47.858;9.594;2023-05-25T00:41:06;95384.84;;;11.68;60.76
18201;BME280;9226;47.858;9.594;2023-05-25T00:43:31;95388.13;;;11.72;61.19
18201;BME280;9226;47.858;9.594;2023-05-25T00:45:57;95380.97;;;11.72;61.50
18201;BME280;9226;47.858;9.594;2023-05-25T00:48:24;95382.41;;;11.55;62.70
18201;BME280;9226;47.858;9.594;2023-05-25T00:50:55;95382.47;;;11.65;61.59
18201;BME280;9226;47.858;9.594;2023-05-25T00:53:24;95381.84;;;11.52;62.86
18201;BME280;9226;47.858;9.594;2023-05-25T00:56:13;95379.63;;;11.57;62.39
18201;BME280;9226;47.858;9.594;2023-05-25T00:58:41;95379.53;;;11.68;62.44
18201;BME280;9226;47.858;9.594;2023-05-25T01:01:08;95376.09;;;11.77;62.85
18201;BME280;9226;47.858;9.594;2023-05-25T01:03:40;95371.53;;;11.89;63.25
18201;BME280;9226;47.858;9.594;2023-05-25T01:06:14;95373.84;;;11.83;64.08
18201;BME280;9226;47.858;9.594;2023-05-25T01:08:43;95378.91;;;11.86;63.44
18201;BME280;9226;47.858;9.594;2023-05-25T01:11:13;95381.13;;;11.81;64.11
18201;BME280;9226;47.858;9.594;2023-05-25T01:13:39;95383.31;;;11.66;64.56
18201;BME280;9226;47.858;9.594;2023-05-25T01:16:06;95375.66;;;11.72;64.85
18201;BME280;9226;47.858;9.594;2023-05-25T01:18:33;95382.66;;;11.73;64.91
18201;BME280;9226;47.858;9.594;2023-05-25T01:26:52;95375.84;;;11.50;65.89
18201;BME280;9226;47.858;9.594;2023-05-25T01:29:20;95385.38;;;11.62;64.87
18201;BME280;9226;47.858;9.594;2023-05-25T01:31:46;95381.75;;;11.63;64.81
18201;BME280;9226;47.858;9.594;2023-05-25T01:34:12;95383.06;;;11.69;64.66
18201;BME280;9226;47.858;9.594;2023-05-25T01:36:39;95384.78;;;11.49;66.01
18201;BME280;9226;47.858;9.594;2023-05-25T01:39:05;95385.66;;;11.59;65.23
18201;BME280;9226;47.858;9.594;2023-05-25T01:41:30;95381.16;;;11.50;65.26
18201;BME280;9226;47.858;9.594;2023-05-25T01:43:56;95381.38;;;11.37;66.42
18201;BME280;9226;47.858;9.594;2023-05-25T01:46:28;95377.59;;;11.39;65.68
18201;BME280;9226;47.858;9.594;2023-05-25T01:49:06;95375.00;;;11.28;66.41
18201;BME280;9226;47.858;9.594;2023-05-25T01:54:13;95374.19;;;11.28;65.99
18201;BME280;9226;47.858;9.594;2023-05-25T01:56:44;95380.50;;;11.36;65.71
18201;BME280;9226;47.858;9.594;2023-05-25T01:59:12;95372.97;;;11.41;65.50
18201;BME280;9226;47.858;9.594;2023-05-25T02:01:39;95380.63;;;11.35;65.67
18201;BME280;9226;47.858;9.594;2023-05-25T02:04:06;95372.22;;;11.30;65.84
18201;BME280;9226;47.858;9.594;2023-05-25T02:06:31;95373.41;;;11.37;65.63
18201;BME280;9226;47.858;9.594;2023-05-25T02:08:57;95374.50;;;11.34;66.01
18201;BME280;9226;47.858;9.594;2023-05-25T02:11:22;95365.00;;;11.41;65.11
18201;BME280;9226;47.858;9.594;2023-05-25T02:13:47;95362.78;;;11.37;65.27
18201;BME280;9226;47.858;9.594;2023-05-25T02:16:13;95366.06;;;11.29;65.09
18201;BME280;9226;47.858;9.594;2023-05-25T02:18:38;95362.44;;;11.30;64.58
18201;BME280;9226;47.858;9.594;2023-05-25T02:21:03;95361.38;;;11.43;64.03
18201;BME280;9226;47.858;9.594;2023-05-25T02:23:29;95356.72;;;11.35;64.43
18201;BME280;9226;47.858;9.594;2023-05-25T02:25:55;95354.19;;;11.33;64.24
18201;BME280;9226;47.858;9.594;2023-05-25T02:28:20;95362.00;;;11.25;64.10
18201;BME280;9226;47.858;9.594;2023-05-25T02:30:46;95365.00;;;11.41;63.28
18201;BME280;9226;47.858;9.594;2023-05-25T02:33:11;95349.50;;;11.37;63.27
18201;BME280;9226;47.858;9.594;2023-05-25T02:35:37;95347.63;;;11.28;63.59
18201;BME280;9226;47.858;9.594;2023-05-25T02:38:03;95339.97;;;11.34;63.22
18201;BME280;9226;47.858;9.594;2023-05-25T02:40:28;95343.91;;;11.19;62.96
18201;BME280;9226;47.858;9.594;2023-05-25T02:42:54;95357.09;;;10.99;63.30
18201;BME280;9226;47.858;9.594;2023-05-25T02:45:19;95358.63;;;11.02;63.76
18201;BME280;9226;47.858;9.594;2023-05-25T02:47:45;95364.97;;;11.11;63.21
18201;BME280;9226;47.858;9.594;2023-05-25T02:50:10;95360.38;;;11.13;63.12
18201;BME280;9226;47.858;9.594;2023-05-25T02:52:35;95355.97;;;11.02;63.72
18201;BME280;9226;47.858;9.594;2023-05-25T02:55:01;95354.53;;;11.19;63.35
18201;BME280;9226;47.858;9.594;2023-05-25T02:57:28;95347.22;;;11.11;63.12
18201;BME280;9226;47.858;9.594;2023-05-25T02:59:53;95355.84;;;11.25;62.61
18201;BME280;9226;47.858;9.594;2023-05-25T03:02:19;95362.00;;;11.04;63.22
18201;BME280;9226;47.858;9.594;2023-05-25T03:04:45;95359.84;;;11.19;62.83
18201;BME280;9226;47.858;9.594;2023-05-25T03:07:11;95367.38;;;11.14;62.82
18201;BME280;9226;47.858;9.594;2023-05-25T03:09:36;95369.84;;;11.06;62.98
18201;BME280;9226;47.858;9.594;2023-05-25T03:12:02;95363.53;;;11.07;63.22
18201;BME280;9226;47.858;9.594;2023-05-25T03:14:27;95358.97;;;11.09;63.17
18201;BME280;9226;47.858;9.594;2023-05-25T03:16:53;95359.47;;;11.02;63.41
18201;BME280;9226;47.858;9.594;2023-05-25T03:19:18;95360.81;;;10.97;63.45
18201;BME280;9226;47.858;9.594;2023-05-25T03:21:45;95359.84;;;10.77;63.86
18201;BME280;9226;47.858;9.594;2023-05-25T03:24:11;95357.38;;;10.64;64.21
18201;BME280;9226;47.858;9.594;2023-05-25T03:26:37;95360.53;;;10.58;64.37
18201;BME280;9226;47.858;9.594;2023-05-25T03:29:02;95348.41;;;10.44;64.75
18201;BME280;9226;47.858;9.594;2023-05-25T03:31:27;95342.13;;;10.45;64.69
18201;BME280;9226;47.858;9.594;2023-05-25T03:33:53;95345.72;;;10.55;64.51
18201;BME280;9226;47.858;9.594;2023-05-25T03:36:18;95347.19;;;10.48;64.48
18201;BME280;9226;47.858;9.594;2023-05-25T03:38:43;95340.22;;;10.36;65.03
18201;BME280;9226;47.858;9.594;2023-05-25T03:41:09;95343.69;;;10.47;64.29
18201;BME280;9226;47.858;9.594;2023-05-25T03:43:34;95351.78;;;10.46;64.61
18201;BME280;9226;47.858;9.594;2023-05-25T03:46:00;95351.91;;;10.44;65.03
18201;BME280;9226;47.858;9.594;2023-05-25T03:48:29;95348.41;;;10.44;65.04
18201;BME280;9226;47.858;9.594;2023-05-25T03:50:54;95345.78;;;10.32;65.63
18201;BME280;9226;47.858;9.594;2023-05-25T03:53:20;95356.16;;;10.24;65.77
18201;BME280;9226;47.858;9.594;2023-05-25T03:55:45;95359.91;;;10.33;65.28
18201;BME280;9226;47.858;9.594;2023-05-25T03:58:11;95357.84;;;10.37;65.50
18201;BME280;9226;47.858;9.594;2023-05-25T04:00:37;95363.13;;;10.37;65.71
18201;BME280;9226;47.858;9.594;2023-05-25T04:03:02;95377.22;;;10.37;65.71
18201;BME280;9226;47.858;9.594;2023-05-25T04:05:28;95376.09;;;10.51;65.23
18201;BME280;9226;47.858;9.594;2023-05-25T04:07:53;95375.56;;;10.68;65.07
18201;BME280;9226;47.858;9.594;2023-05-25T04:10:19;95373.22;;;10.75;64.80
18201;BME280;9226;47.858;9.594;2023-05-25T04:12:45;95374.28;;;10.84;64.88
18201;BME280;9226;47.858;9.594;2023-05-25T04:15:10;95372.00;;;10.79;64.85
18201;BME280;9226;47.858;9.594;2023-05-25T04:17:38;95374.03;;;11.08;64.00
18201;BME280;9226;47.858;9.594;2023-05-25T04:20:05;95380.34;;;11.07;63.85
18201;BME280;9226;47.858;9.594;2023-05-25T04:22:31;95374.06;;;11.29;63.56
18201;BME280;9226;47.858;9.594;2023-05-25T04:24:57;95383.31;;;11.66;63.06
18201;BME280;9226;47.858;9.594;2023-05-25T04:27:22;95384.06;;;11.77;62.23
18201;BME280;9226;47.858;9.594;2023-05-25T04:29:50;95384.88;;;11.99;61.49
18201;BME280;9226;47.858;9.594;2023-05-25T04:32:18;95388.19;;;12.32;60.76
18201;BME280;9226;47.858;9.594;2023-05-25T04:34:45;95385.28;;;12.55;59.68
18201;BME280;9226;47.858;9.594;2023-05-25T04:37:12;95390.34;;;12.77;59.12
18201;BME280;9226;47.858;9.594;2023-05-25T04:39:38;95381.06;;;13.40;58.42
18201;BME280;9226;47.858;9.594;2023-05-25T04:42:03;95384.06;;;13.74;56.82
18201;BME280;9226;47.858;9.594;2023-05-25T04:44:33;95382.88;;;13.97;55.68
18201;BME280;9226;47.858;9.594;2023-05-25T04:46:58;95371.97;;;14.63;55.58
18201;BME280;9226;47.858;9.594;2023-05-25T04:49:25;95375.53;;;15.08;54.76
18201;BME280;9226;47.858;9.594;2023-05-25T04:51:51;95380.13;;;15.16;52.69
18201;BME280;9226;47.858;9.594;2023-05-25T04:54:16;95387.63;;;15.83;52.54
18201;BME280;9226;47.858;9.594;2023-05-25T04:56:42;95395.78;;;16.07;50.69
18201;BME280;9226;47.858;9.594;2023-05-25T04:59:08;95390.63;;;16.57;50.05
18201;BME280;9226;47.858;9.594;2023-05-25T05:01:33;95388.25;;;17.05;49.26
18201;BME280;9226;47.858;9.594;2023-05-25T05:04:05;95395.59;;;16.94;48.04
18201;BME280;9226;47.858;9.594;2023-05-25T05:06:30;95390.94;;;17.29;48.56
18201;BME280;9226;47.858;9.594;2023-05-25T05:08:56;95397.13;;;17.13;46.92
18201;BME280;9226;47.858;9.594;2023-05-25T05:11:21;95383.72;;;17.22;48.20
18201;BME280;9226;47.858;9.594;2023-05-25T05:13:47;95395.34;;;16.71;47.53
18201;BME280;9226;47.858;9.594;2023-05-25T05:16:13;95394.50;;;16.71;48.44
18201;BME280;9226;47.858;9.594;2023-05-25T05:18:38;95390.78;;;16.55;49.18
18201;BME280;9226;47.858;9.594;2023-05-25T05:21:03;95393.06;;;16.34;49.65
18201;BME280;9226;47.858;9.594;2023-05-25T05:23:29;95394.75;;;16.43;49.49
18201;BME280;9226;47.858;9.594;2023-05-25T05:25:54;95403.13;;;15.97;49.89
18201;BME280;9226;47.858;9.594;2023-05-25T05:28:20;95406.53;;;15.63;51.26
18201;BME280;9226;47.858;9.594;2023-05-25T05:30:45;95415.09;;;15.05;52.51
18201;BME280;9226;47.858;9.594;2023-05-25T05:33:12;95419.44;;;14.88;53.64
18201;BME280;9226;47.858;9.594;2023-05-25T05:35:37;95417.16;;;14.47;54.83
18201;BME280;9226;47.858;9.594;2023-05-25T05:38:03;95421.16;;;14.61;54.99
18201;BME280;9226;47.858;9.594;2023-05-25T05:40:29;95413.50;;;14.20;56.64
18201;BME280;9226;47.858;9.594;2023-05-25T05:42:54;95407.44;;;14.28;nan
18201;BME280;9226;47.858;9.594;2023-05-25T05:45:20;95403.47;;;14.60;56.85
18201;BME280;9226;47.858;9.594;2023-05-25T05:47:45;95412.50;;;15.13;55.74
18201;BME280;9226;47.858;9.594;2023-05-25T05:50:11;95414.00;;;15.51;54.19
18201;BME280;9226;47.858;9.594;2023-05-25T05:52:36;95413.44;;;15.92;54.01
18201;BME280;9226;47.858;9.594;2023-05-25T05:55:01;95416.41;;;16.15;52.98
18201;BME280;9226;47.858;9.594;2023-05-25T05:57:27;95413.84;;;16.05;52.41
18201;BME280;9226;47.858;9.594;2023-05-25T05:59:52;95417.16;;;15.99;53.53
18201;BME280;9226;47.858;9.594;2023-05-25T06:02:18;95417.19;;;16.07;52.98
18201;BME280;9226;47.858;9.594;2023-05-25T06:04:43;95411.91;;;16.24;53.19
18201;BME280;9226;47.858;9.594;2023-05-25T06:07:09;95411.53;;;16.10;53.32
18201;BME280;9226;47.858;9.594;2023-05-25T06:09:34;95410.59;;;16.71;51.81
18201;BME280;9226;47.858;9.594;2023-05-25T06:12:00;95398.81;;;17.23;52.43
18201;BME280;9226;47.858;9.594;2023-05-25T06:14:25;95409.56;;;17.47;50.53
18201;BME280;9226;47.858;9.594;2023-05-25T06:16:51;95412.34;;;18.03;49.92
18201;BME280;9226;47.858;9.594;2023-05-25T06:19:16;95411.84;;;17.92;49.46
18201;BME280;9226;47.858;9.594;2023-05-25T06:21:41;95415.47;;;18.15;48.86
18201;BME280;9226;47.858;9.594;2023-05-25T06:24:10;95417.13;;;18.24;48.65
18201;BME280;9226;47.858;9.594;2023-05-25T06:26:35;95418.16;;;18.23;49.52
18201;BME280;9226;47.858;9.594;2023-05-25T06:29:01;95418.56;;;17.87;49.48
18201;BME280;9226;47.858;9.594;2023-05-25T06:31:26;95416.91;;;17.62;50.51
18201;BME280;9226;47.858;9.594;2023-05-25T06:33:51;95418.06;;;17.02;52.36
18201;BME280;9226;47.858;9.594;2023-05-25T06:36:17;95429.72;;;16.84;53.18
18201;BME280;9226;47.858;9.594;2023-05-25T06:38:42;95430.00;;;16.64;54.09
18201;BME280;9226;47.858;9.594;2023-05-25T06:41:08;95432.13;;;16.53;54.98
18201;BME280;9226;47.858;9.594;2023-05-25T06:43:36;95442.94;;;16.00;56.13
18201;BME280;9226;47.858;9.594;2023-05-25T06:46:02;95446.72;;;15.89;56.94
18201;BME280;9226;47.858;9.594;2023-05-25T06:48:27;95452.69;;;15.65;58.05
18201;BME280;9226;47.858;9.594;2023-05-25T06:50:52;95444.81;;;15.82;57.98
18201;BME280;9226;47.858;9.594;2023-05-25T06:53:18;95439.56;;;15.54;59.44
18201;BME280;9226;47.858;9.594;2023-05-25T06:55:43;95441.50;;;15.70;58.77
18201;BME280;9226;47.858;9.594;2023-05-25T06:58:08;95454.00;;;15.61;59.59
18201;BME280;9226;47.858;9.594;2023-05-25T07:00:34;95449.16;;;15.83;59.36
18201;BME280;9226;47.858;9.594;2023-05-25T07:02:59;95453.53;;;15.66;59.15
18201;BME280;9226;47.858;9.594;2023-05-25T07:05:25;95460.56;;;15.85;59.15
18201;BME280;9226;47.858;9.594;2023-05-25T07:07:50;95450.47;;;15.79;59.24
18201;BME280;9226;47.858;9.594;2023-05-25T07:10:16;95456.66;;;15.79;58.80
18201;BME280;9226;47.858;9.594;2023-05-25T07:12:41;95455.59;;;15.54;59.74
18201;BME280;9226;47.858;9.594;2023-05-25T07:15:07;95449.59;;;15.52;59.58
18201;BME280;9226;47.858;9.594;2023-05-25T07:17:33;95447.72;;;15.70;59.94
18201;BME280;9226;47.858;9.594;2023-05-25T07:20:00;95449.94;;;15.75;59.70
18201;BME280;9226;47.858;9.594;2023-05-25T07:22:26;95449.34;;;15.63;60.63
18201;BME280;9226;47.858;9.594;2023-05-25T07:24:51;95455.16;;;15.77;60.51
18201;BME280;9226;47.858;9.594;2023-05-25T07:27:17;95455.00;;;15.78;60.37
18201;BME280;9226;47.858;9.594;2023-05-25T07:29:43;95451.53;;;15.68;60.83
18201;BME280;9226;47.858;9.594;2023-05-25T07:32:09;95449.53;;;15.88;60.31
18201;BME280;9226;47.858;9.594;2023-05-25T07:34:35;95453.38;;;15.85;60.80
18201;BME280;9226;47.858;9.594;2023-05-25T07:37:00;95444.78;;;16.08;60.10
18201;BME280;9226;47.858;9.594;2023-05-25T07:39:26;95448.31;;;16.43;59.80
18201;BME280;9226;47.858;9.594;2023-05-25T07:41:51;95448.22;;;16.53;59.46
18201;BME280;9226;47.858;9.594;2023-05-25T07:44:17;95442.91;;;16.69;59.24
18201;BME280;9226;47.858;9.594;2023-05-25T07:46:42;95450.50;;;16.90;58.06
18201;BME280;9226;47.858;9.594;2023-05-25T07:49:08;95458.28;;;17.10;57.02
18201;BME280;9226;47.858;9.594;2023-05-25T07:51:37;95458.78;;;17.22;56.96
18201;BME280;9226;47.858;9.594;2023-05-25T07:54:03;95462.81;;;17.50;56.08
18201;BME280;9226;47.858;9.594;2023-05-25T07:56:28;95457.47;;;17.42;56.19
18201;BME280;9226;47.858;9.594;2023-05-25T07:58:54;95462.84;;;17.42;56.25
18201;BME280;9226;47.858;9.594;2023-05-25T08:01:19;95455.47;;;17.44;56.42
18201;BME280;9226;47.858;9.594;2023-05-25T08:03:44;95462.16;;;17.57;55.34
18201;BME280;9226;47.858;9.594;2023-05-25T08:06:10;95465.88;;;17.56;56.09
18201;BME280;9226;47.858;9.594;2023-05-25T08:08:35;95466.50;;;17.33;56.28
18201;BME280;9226;47.858;9.594;2023-05-25T08:11:01;95467.19;;;17.43;56.62
18201;BME280;9226;47.858;9.594;2023-05-25T08:13:27;95471.06;;;17.57;56.78
18201;BME280;9226;47.858;9.594;2023-05-25T08:15:52;95478.25;;;17.57;56.78
18201;BME280;9226;47.858;9.594;2023-05-25T08:18:17;95482.28;;;17.36;57.68
18201;BME280;9226;47.858;9.594;2023-05-25T08:20:43;95482.47;;;17.43;57.65
18201;BME280;9226;47.858;9.594;2023-05-25T08:23:09;95487.31;;;17.80;57.12
18201;BME280;9226;47.858;9.594;2023-05-25T08:25:34;95485.34;;;17.90;56.72
18201;BME280;9226;47.858;9.594;2023-05-25T08:28:00;95487.31;;;17.72;56.22
18201;BME280;9226;47.858;9.594;2023-05-25T08:30:25;95477.09;;;17.76;56.13
18201;BME280;9226;47.858;9.594;2023-05-25T08:32:50;95493.38;;;17.82;56.38
18201;BME280;9226;47.858;9.594;2023-05-25T08:35:16;95497.91;;;17.57;56.99
18201;BME280;9226;47.858;9.594;2023-05-25T08:37:42;95495.72;;;17.69;56.81
18201;BME280;9226;47.858;9.594;2023-05-25T08:40:13;95499.06;;;17.54;57.17
18201;BME280;9226;47.858;9.594;2023-05-25T08:42:43;95510.78;;;17.45;57.02
18201;BME280;9226;47.858;9.594;2023-05-25T08:45:09;95510.03;;;17.10;57.81
18201;BME280;9226;47.858;9.594;2023-05-25T08:47:40;95514.09;;;17.14;58.89
18201;BME280;9226;47.858;9.594;2023-05-25T08:50:08;95516.25;;;17.11;58.88
18201;BME280;9226;47.858;9.594;2023-05-25T08:52:35;95518.06;;;17.02;58.73
18201;BME280;9226;47.858;9.594;2023-05-25T08:55:04;95513.03;;;16.99;59.30
18201;BME280;9226;47.858;9.594;2023-05-25T09:00:10;95516.06;;;17.04;59.39
18201;BME280;9226;47.858;9.594;2023-05-25T09:02:53;95523.59;;;17.00;58.80
18201;BME280;9226;47.858;9.594;2023-05-25T09:05:19;95535.22;;;16.83;59.62
18201;BME280;9226;47.858;9.594;2023-05-25T09:07:45;95530.09;;;16.90;59.66
18201;BME280;9226;47.858;9.594;2023-05-25T09:10:11;95536.06;;;16.83;60.21
18201;BME280;9226;47.858;9.594;2023-05-25T09:12:37;95542.75;;;16.79;60.05
18201;BME280;9226;47.858;9.594;2023-05-25T09:15:03;95549.19;;;16.95;59.56
18201;BME280;9226;47.858;9.594;2023-05-25T09:17:29;95548.53;;;17.01;59.52
18201;BME280;9226;47.858;9.594;2023-05-25T09:19:54;95553.91;;;17.01;60.10
18201;BME280;9226;47.858;9.594;2023-05-25T09:22:20;95551.31;;;16.83;59.89
18201;BME280;9226;47.858;9.594;2023-05-25T09:24:46;95557.88;;;16.89;60.07
18201;BME280;9226;47.858;9.594;2023-05-25T09:27:16;95552.88;;;16.94;60.43
18201;BME280;9226;47.858;9.594;2023-05-25T09:29:44;95549.75;;;17.07;59.99
18201;BME280;9226;47.858;9.594;2023-05-25T09:32:10;95563.78;;;16.92;60.42
18201;BME280;9226;47.858;9.594;2023-05-25T09:34:35;95558.25;;;16.94;60.34
18201;BME280;9226;47.858;9.594;2023-05-25T09:37:15;95555.63;;;17.10;60.00
18201;BME280;9226;47.858;9.594;2023-05-25T09:39:41;95555.63;;;17.18;59.35
18201;BME280;9226;47.858;9.594;2023-05-25T09:42:07;95561.72;;;17.29;58.91
18201;BME280;9226;47.858;9.594;2023-05-25T09:44:32;95557.03;;;17.39;58.76
18201;BME280;9226;47.858;9.594;2023-05-25T09:46:58;95565.13;;;17.47;58.52
18201;BME280;9226;47.858;9.594;2023-05-25T09:49:23;95566.47;;;17.60;58.67
18201;BME280;9226;47.858;9.594;2023-05-25T09:51:50;95566.50;;;17.84;58.08
18201;BME280;9226;47.858;9.594;2023-05-25T09:54:16;95563.09;;;17.41;58.38
18201;BME280;9226;47.858;9.594;2023-05-25T09:56:42;95559.78;;;17.64;58.14
18201;BME280;9226;47.858;9.594;2023-05-25T09:59:08;95564.34;;;17.88;58.09
18201;BME280;9226;47.858;9.594;2023-05-25T10:01:33;95563.34;;;18.05;58.34
18201;BME280;9226;47.858;9.594;2023-05-25T10:04:00;95566.88;;;18.14;57.27
18201;BME280;9226;47.858;9.594;2023-05-25T10:06:26;95570.56;;;18.05;56.65
18201;BME280;9226;47.858;9.594;2023-05-25T10:08:55;95572.22;;;18.31;56.75
18201;BME280;9226;47.858;9.594;2023-05-25T10:11:20;95579.03;;;18.74;55.73
18201;BME280;9226;47.858;9.594;2023-05-25T10:13:48;95581.91;;;18.73;55.67
18201;BME280;9226;47.858;9.594;2023-05-25T10:16:16;95584.53;;;18.97;55.62
18201;BME280;9226;47.858;9.594;2023-05-25T10:19:05;95587.44;;;19.27;54.49
18201;BME280;9226;47.858;9.594;2023-05-25T10:21:32;95584.91;;;19.34;54.21
18201;BME280;9226;47.858;9.594;2023-05-25T10:26:58;95584.63;;;19.21;54.46
18201;BME280;9226;47.858;9.594;2023-05-25T10:29:26;95580.56;;;19.25;53.46
18201;BME280;9226;47.858;9.594;2023-05-25T10:31:52;95599.25;;;19.49;53.99
18201;BME280;9226;47.858;9.594;2023-05-25T10:34:19;95588.53;;;19.73;53.39
18201;BME280;9226;47.858;9.594;2023-05-25T10:36:46;95595.88;;;19.87;52.95
18201;BME280;9226;47.858;9.594;2023-05-25T10:39:13;95599.78;;;20.08;52.41
18201;BME280;9226;47.858;9.594;2023-05-25T10:41:40;95592.41;;;19.47;53.52
18201;BME280;9226;47.858;9.594;2023-05-25T10:44:07;95603.47;;;19.83;52.50
18201;BME280;9226;47.858;9.594;2023-05-25T10:46:33;95594.94;;;19.71;53.39
18201;BME280;9226;47.858;9.594;2023-05-25T10:48:59;95599.66;;;20.01;53.49
18201;BME280;9226;47.858;9.594;2023-05-25T10:51:36;95598.75;;;20.09;52.28
18201;BME280;9226;47.858;9.594;2023-05-25T10:54:02;95596.94;;;20.24;51.96
18201;BME280;9226;47.858;9.594;2023-05-25T10:56:28;95593.66;;;20.37;51.71
18201;BME280;9226;47.858;9.594;2023-05-25T10:58:53;95593.59;;;20.22;51.70
18201;BME280;9226;47.858;9.594;2023-05-25T11:01:19;95597.56;;;20.72;51.73
18201;BME280;9226;47.858;9.594;2023-05-25T11:03:55;95595.63;;;20.81;50.93
18201;BME280;9226;47.858;9.594;2023-05-25T11:09:28;95581.84;;;21.21;49.42
18201;BME280;9226;47.858;9.594;2023-05-25T11:14:27;95590.47;;;21.61;48.33
18201;BME280;9226;47.858;9.594;2023-05-25T11:22:29;95586.59;;;22.07;47.87
18201;BME280;9226;47.858;9.594;2023-05-25T11:24:56;95582.34;;;21.61;48.34
18201;BME280;9226;47.858;9.594;2023-05-25T11:27:23;95580.25;;;21.41;49.20
18201;BME280;9226;47.858;9.594;2023-05-25T11:29:50;95590.03;;;21.27;48.48
18201;BME280;9226;47.858;9.594;2023-05-25T11:32:15;95590.09;;;21.34;48.26
18201;BME280;9226;47.858;9.594;2023-05-25T11:34:41;95579.53;;;21.69;47.63
18201;BME280;9226;47.858;9.594;2023-05-25T11:37:17;95580.22;;;21.93;46.98
18201;BME280;9226;47.858;9.594;2023-05-25T11:39:52;95583.16;;;22.19;47.97
18201;BME280;9226;47.858;9.594;2023-05-25T11:42:20;95583.28;;;21.68;48.66
18201;BME280;9226;47.858;9.594;2023-05-25T11:44:46;95576.72;;;21.77;47.57
18201;BME280;9226;47.858;9.594;2023-05-25T11:47:13;95587.78;;;21.31;49.43
18201;BME280;9226;47.858;9.594;2023-05-25T11:49:39;95578.00;;;22.25;48.29
18201;BME280;9226;47.858;9.594;2023-05-25T11:52:20;95574.50;;;22.46;48.83
18201;BME280;9226;47.858;9.594;2023-05-25T11:54:47;95579.91;;;22.74;48.01
18201;BME280;9226;47.858;9.594;2023-05-25T11:57:20;95577.88;;;23.11;47.30
18201;BME280;9226;47.858;9.594;2023-05-25T11:59:52;95580.38;;;23.12;46.92
18201;BME280;9226;47.858;9.594;2023-05-25T12:02:19;95583.28;;;22.54;46.84
18201;BME280;9226;47.858;9.594;2023-05-25T12:04:58;95583.47;;;22.81;47.38
18201;BME280;9226;47.858;9.594;2023-05-25T12:07:26;95577.75;;;22.19;47.42
18201;BME280;9226;47.858;9.594;2023-05-25T12:10:12;95586.38;;;21.86;47.35
18201;BME280;9226;47.858;9.594;2023-05-25T12:12:44;95579.13;;;21.87;48.02
18201;BME280;9226;47.858;9.594;2023-05-25T12:15:29;95579.44;;;21.99;48.67
18201;BME280;9226;47.858;9.594;2023-05-25T12:17:55;95588.50;;;21.55;49.16
18201;BME280;9226;47.858;9.594;2023-05-25T12:20:21;95585.72;;;21.33;49.49
18201;BME280;9226;47.858;9.594;2023-05-25T12:22:47;95592.97;;;21.47;49.89
18201;BME280;9226;47.858;9.594;2023-05-25T12:25:14;95580.97;;;21.65;49.75
18201;BME280;9226;47.858;9.594;2023-05-25T12:27:42;95592.44;;;21.37;49.68
18201;BME280;9226;47.858;9.594;2023-05-25T12:30:08;95581.09;;;21.27;49.78
18201;BME280;9226;47.858;9.594;2023-05-25T12:32:34;95581.47;;;21.75;49.63
18201;BME280;9226;47.858;9.594;2023-05-25T12:35:14;95582.28;;;21.54;49.33
18201;BME280;9226;47.858;9.594;2023-05-25T12:37:40;95585.81;;;21.40;49.11
18201;BME280;9226;47.858;9.594;2023-05-25T12:40:25;95578.28;;;21.50;49.33
18201;BME280;9226;47.858;9.594;2023-05-25T12:42:56;95574.75;;;21.49;49.39
18201;BME280;9226;47.858;9.594;2023-05-25T12:45:21;95579.84;;;21.59;48.92
18201;BME280;9226;47.858;9.594;2023-05-25T12:47:46;95577.16;;;21.29;49.58
18201;BME280;9226;47.858;9.594;2023-05-25T12:50:13;95582.50;;;21.23;50.10
18201;BME280;9226;47.858;9.594;2023-05-25T12:52:43;95583.34;;;21.08;49.71
18201;BME280;9226;47.858;9.594;2023-05-25T12:55:25;95584.63;;;21.12;50.45
18201;BME280;9226;47.858;9.594;2023-05-25T12:58:01;95582.47;;;21.08;50.30
18201;BME280;9226;47.858;9.594;2023-05-25T13:00:33;95594.66;;;20.89;50.92
18201;BME280;9226;47.858;9.594;2023-05-25T13:02:59;95586.56;;;20.89;50.13
18201;BME280;9226;47.858;9.594;2023-05-25T13:05:30;95586.50;;;20.97;50.24
18201;BME280;9226;47.858;9.594;2023-05-25T13:07:57;95586.03;;;21.08;50.40
18201;BME280;9226;47.858;9.594;2023-05-25T13:10:23;95578.13;;;20.92;50.20
18201;BME280;9226;47.858;9.594;2023-05-25T13:12:49;95594.25;;;20.62;50.97
18201;BME280;9226;47.858;9.594;2023-05-25T13:15:17;95593.16;;;20.33;52.30
18201;BME280;9226;47.858;9.594;2023-05-25T13:17:43;95578.75;;;20.64;52.21
18201;BME280;9226;47.858;9.594;2023-05-25T13:20:13;95576.47;;;20.91;51.05
18201;BME280;9226;47.858;9.594;2023-05-25T13:22:39;95581.13;;;20.97;50.88
18201;BME280;9226;47.858;9.594;2023-05-25T13:25:06;95576.16;;;21.15;50.98
18201;BME280;9226;47.858;9.594;2023-05-25T13:27:33;95579.94;;;21.36;52.07
18201;BME280;9226;47.858;9.594;2023-05-25T13:30:00;95570.63;;;21.54;51.29
18201;BME280;9226;47.858;9.594;2023-05-25T13:32:26;95568.28;;;21.65;51.24
18201;BME280;9226;47.858;9.594;2023-05-25T13:34:51;95561.59;;;21.61;50.85